sensor_id;sensor_type;location;lat;lon;timestamp;P1;durP1;ratioP1;P2;durP2;ratioP2
26718;SDS011;14326;50.794;6.060;2023-05-10T00:00:33;39.90;;;19.45;;
26718;SDS011;14326;50.794;6.060;2023-05-10T00:03:07;39.95;;;19.67;;
26718;SDS011;14326;50.794;6.060;2023-05-10T00:05:45;45.72;;;20.40;;
26718;SDS011;14326;50.794;6.060;2023-05-10T00:08:20;41.47;;;20.73;;
26718;SDS011;14326;50.794;6.060;2023-05-10T00:11:01;41.72;;;20.17;;
26718;SDS011;14326;50.794;6.060;2023-05-10T00:13:27;41.05;;;19.75;;
26718;SDS011;14326;50.794;6.060;2023-05-10T00:16:10;42.58;;;21.27;;
26718;SDS011;14326;50.794;6.060;2023-05-10T00:19:10;44.08;;;21.42;;
26718;SDS011;14326;50.794;6.060;2023-05-10T00:24:20;49.15;;;21.77;;
26718;SDS011;14326;50.794;6.060;2023-05-10T00:26:47;44.38;;;20.33;;
26718;SDS011;14326;50.794;6.060;2023-05-10T00:29:13;42.85;;;20.88;;
26718;SDS011;14326;50.794;6.060;2023-05-10T00:31:41;41.30;;;20.48;;
26718;SDS011;14326;50.794;6.060;2023-05-10T00:34:20;42.92;;;20.95;;
26718;SDS011;14326;50.794;6.060;2023-05-10T00:37:15;36.72;;;18.15;;
26718;SDS011;14326;50.794;6.060;2023-05-10T00:40:02;32.92;;;17.23;;
26718;SDS011;14326;50.794;6.060;2023-05-10T00:42:55;34.15;;;16.98;;
26718;SDS011;14326;50.794;6.060;2023-05-10T00:45:22;31.98;;;16.08;;
26718;SDS011;14326;50.794;6.060;2023-05-10T00:47:50;32.70;;;16.02;;
26718;SDS011;14326;50.794;6.060;2023-05-10T00:50:34;28.15;;;15.10;;
26718;SDS011;14326;50.794;6.060;2023-05-10T00:53:23;29.25;;;14.93;;
26718;SDS011;14326;50.794;6.060;2023-05-10T00:55:56;28.20;;;14.18;;
26718;SDS011;14326;50.794;6.060;2023-05-10T00:58:48;28.05;;;13.13;;
26718;SDS011;14326;50.794;6.060;2023-05-10T01:01:28;27.30;;;13.07;;
26718;SDS011;14326;50.794;6.060;2023-05-10T01:04:39;29.73;;;12.80;;
26718;SDS011;14326;50.794;6.060;2023-05-10T01:07:26;29.77;;;13.25;;
26718;SDS011;14326;50.794;6.060;2023-05-10T01:09:56;26.92;;;13.18;;
26718;SDS011;14326;50.794;6.060;2023-05-10T01:12:40;28.50;;;13.45;;
26718;SDS011;14326;50.794;6.060;2023-05-10T01:15:08;29.17;;;14.00;;
26718;SDS011;14326;50.794;6.060;2023-05-10T01:17:37;27.23;;;14.48;;
26718;SDS011;14326;50.794;6.060;2023-05-10T01:20:07;29.33;;;14.07;;
26718;SDS011;14326;50.794;6.060;2023-05-10T01:22:46;28.55;;;14.35;;
26718;SDS011;14326;50.794;6.060;2023-05-10T01:25:31;23.60;;;10.70;;
26718;SDS011;14326;50.794;6.060;2023-05-10T01:31:30;29.70;;;14.98;;
26718;SDS011;14326;50.794;6.060;2023-05-10T01:34:08;28.85;;;14.15;;
26718;SDS011;14326;50.794;6.060;2023-05-10T01:36:40;27.67;;;14.07;;
26718;SDS011;14326;50.794;6.060;2023-05-10T01:39:12;26.55;;;13.57;;
26718;SDS011;14326;50.794;6.060;2023-05-10T01:41:45;27.85;;;13.80;;
26718;SDS011;14326;50.794;6.060;2023-05-10T01:44:16;25.85;;;13.63;;
26718;SDS011;14326;50.794;6.060;2023-05-10T01:46:48;25.88;;;13.02;;
26718;SDS011;14326;50.794;6.060;2023-05-10T01:49:25;25.15;;;11.95;;
26718;SDS011;14326;50.794;6.060;2023-05-10T01:51:58;25.55;;;12.90;;
26718;SDS011;14326;50.794;6.060;2023-05-10T01:54:30;27.00;;;12.45;;
26718;SDS011;14326;50.794;6.060;2023-05-10T01:57:00;26.92;;;11.10;;
26718;SDS011;14326;50.794;6.060;2023-05-10T01:59:30;25.42;;;11.23;;
26718;SDS011;14326;50.794;6.060;2023-05-10T02:02:04;26.98;;;11.50;;
26718;SDS011;14326;50.794;6.060;2023-05-10T02:04:33;21.95;;;10.23;;
26718;SDS011;14326;50.794;6.060;2023-05-10T02:07:03;22.70;;;11.07;;
26718;SDS011;14326;50.794;6.060;2023-05-10T02:09:31;23.67;;;10.57;;
26718;SDS011;14326;50.794;6.060;2023-05-10T02:11:59;24.50;;;11.05;;
26718;SDS011;14326;50.794;6.060;2023-05-10T02:14:28;25.58;;;11.13;;
26718;SDS011;14326;50.794;6.060;2023-05-10T02:17:16;22.88;;;11.40;;
26718;SDS011;14326;50.794;6.060;2023-05-10T02:25:57;25.87;;;11.43;;
26718;SDS011;14326;50.794;6.060;2023-05-10T02:28:39;24.88;;;10.90;;
26718;SDS011;14326;50.794;6.060;2023-05-10T02:31:27;27.88;;;12.48;;
26718;SDS011;14326;50.794;6.060;2023-05-10T02:34:08;26.70;;;12.00;;
26718;SDS011;14326;50.794;6.060;2023-05-10T02:36:38;33.03;;;13.50;;
26718;SDS011;14326;50.794;6.060;2023-05-10T02:39:18;30.65;;;13.70;;
26718;SDS011;14326;50.794;6.060;2023-05-10T02:42:13;31.27;;;14.55;;
26718;SDS011;14326;50.794;6.060;2023-05-10T02:45:17;33.78;;;14.75;;
26718;SDS011;14326;50.794;6.060;2023-05-10T02:51:13;39.60;;;16.13;;
26718;SDS011;14326;50.794;6.060;2023-05-10T02:53:44;32.05;;;16.05;;
26718;SDS011;14326;50.794;6.060;2023-05-10T02:56:14;35.38;;;14.57;;
26718;SDS011;14326;50.794;6.060;2023-05-10T02:58:46;36.83;;;16.55;;
26718;SDS011;14326;50.794;6.060;2023-05-10T03:01:12;33.72;;;15.50;;
26718;SDS011;14326;50.794;6.060;2023-05-10T03:03:39;35.17;;;16.58;;
26718;SDS011;14326;50.794;6.060;2023-05-10T03:06:06;37.75;;;16.70;;
26718;SDS011;14326;50.794;6.060;2023-05-10T03:08:32;37.95;;;15.95;;
26718;SDS011;14326;50.794;6.060;2023-05-10T03:11:16;35.97;;;15.35;;
26718;SDS011;14326;50.794;6.060;2023-05-10T03:16:24;35.03;;;14.65;;
26718;SDS011;14326;50.794;6.060;2023-05-10T03:18:56;37.30;;;14.95;;
26718;SDS011;14326;50.794;6.060;2023-05-10T03:21:38;34.30;;;14.57;;
26718;SDS011;14326;50.794;6.060;2023-05-10T03:24:11;36.28;;;14.23;;
26718;SDS011;14326;50.794;6.060;2023-05-10T03:26:41;29.20;;;13.37;;
26718;SDS011;14326;50.794;6.060;2023-05-10T03:29:09;35.33;;;14.50;;
26718;SDS011;14326;50.794;6.060;2023-05-10T03:31:37;32.10;;;13.85;;
26718;SDS011;14326;50.794;6.060;2023-05-10T03:34:04;34.50;;;13.13;;
26718;SDS011;14326;50.794;6.060;2023-05-10T03:36:31;32.60;;;12.65;;
26718;SDS011;14326;50.794;6.060;2023-05-10T03:38:57;34.60;;;13.07;;
26718;SDS011;14326;50.794;6.060;2023-05-10T03:41:35;34.45;;;14.15;;
26718;SDS011;14326;50.794;6.060;2023-05-10T03:44:06;35.72;;;15.45;;
26718;SDS011;14326;50.794;6.060;2023-05-10T03:46:33;33.08;;;13.35;;
26718;SDS011;14326;50.794;6.060;2023-05-10T03:48:59;33.63;;;13.73;;
26718;SDS011;14326;50.794;6.060;2023-05-10T03:51:26;31.67;;;13.10;;
26718;SDS011;14326;50.794;6.060;2023-05-10T03:53:53;33.70;;;13.70;;
26718;SDS011;14326;50.794;6.060;2023-05-10T03:59:12;35.58;;;14.07;;
26718;SDS011;14326;50.794;6.060;2023-05-10T04:01:39;33.25;;;14.45;;
26718;SDS011;14326;50.794;6.060;2023-05-10T04:04:06;32.35;;;12.80;;
26718;SDS011;14326;50.794;6.060;2023-05-10T04:06:32;29.95;;;12.93;;
26718;SDS011;14326;50.794;6.060;2023-05-10T04:08:59;31.85;;;13.55;;
26718;SDS011;14326;50.794;6.060;2023-05-10T04:11:29;35.15;;;13.80;;
26718;SDS011;14326;50.794;6.060;2023-05-10T04:13:55;35.25;;;14.55;;
26718;SDS011;14326;50.794;6.060;2023-05-10T04:16:23;31.10;;;13.30;;
26718;SDS011;14326;50.794;6.060;2023-05-10T04:18:50;33.78;;;13.90;;
26718;SDS011;14326;50.794;6.060;2023-05-10T04:21:18;31.05;;;13.52;;
26718;SDS011;14326;50.794;6.060;2023-05-10T04:23:45;33.10;;;13.18;;
26718;SDS011;14326;50.794;6.060;2023-05-10T04:26:20;34.63;;;15.27;;
26718;SDS011;14326;50.794;6.060;2023-05-10T04:29:05;37.25;;;13.93;;
26718;SDS011;14326;50.794;6.060;2023-05-10T04:31:33;34.80;;;16.13;;
26718;SDS011;14326;50.794;6.060;2023-05-10T04:34:01;33.67;;;14.77;;
26718;SDS011;14326;50.794;6.060;2023-05-10T04:36:28;38.15;;;14.82;;
26718;SDS011;14326;50.794;6.060;2023-05-10T04:38:54;33.15;;;14.43;;
26718;SDS011;14326;50.794;6.060;2023-05-10T04:41:21;37.72;;;14.77;;
26718;SDS011;14326;50.794;6.060;2023-05-10T04:43:47;39.60;;;15.23;;
26718;SDS011;14326;50.794;6.060;2023-05-10T04:46:15;34.30;;;14.73;;
26718;SDS011;14326;50.794;6.060;2023-05-10T04:48:43;34.83;;;14.40;;
26718;SDS011;14326;50.794;6.060;2023-05-10T04:51:09;40.70;;;14.95;;
26718;SDS011;14326;50.794;6.060;2023-05-10T04:53:36;34.60;;;14.68;;
26718;SDS011;14326;50.794;6.060;2023-05-10T04:56:02;36.30;;;15.02;;
26718;SDS011;14326;50.794;6.060;2023-05-10T04:58:29;34.05;;;14.13;;
26718;SDS011;14326;50.794;6.060;2023-05-10T05:00:56;35.25;;;14.35;;
26718;SDS011;14326;50.794;6.060;2023-05-10T05:03:23;35.28;;;15.73;;
26718;SDS011;14326;50.794;6.060;2023-05-10T05:05:50;35.97;;;15.73;;
26718;SDS011;14326;50.794;6.060;2023-05-10T05:08:17;38.58;;;15.07;;
26718;SDS011;14326;50.794;6.060;2023-05-10T05:10:49;34.33;;;15.48;;
26718;SDS011;14326;50.794;6.060;2023-05-10T05:13:18;33.78;;;14.65;;
26718;SDS011;14326;50.794;6.060;2023-05-10T05:18:22;41.10;;;15.38;;
26718;SDS011;14326;50.794;6.060;2023-05-10T05:20:48;44.42;;;14.82;;
26718;SDS011;14326;50.794;6.060;2023-05-10T05:23:16;39.90;;;14.73;;
26718;SDS011;14326;50.794;6.060;2023-05-10T05:25:45;37.40;;;14.20;;
26718;SDS011;14326;50.794;6.060;2023-05-10T05:28:12;33.08;;;14.70;;
26718;SDS011;14326;50.794;6.060;2023-05-10T05:30:39;35.42;;;14.15;;
26718;SDS011;14326;50.794;6.060;2023-05-10T05:33:06;34.17;;;13.27;;
26718;SDS011;14326;50.794;6.060;2023-05-10T05:35:32;32.65;;;13.98;;
26718;SDS011;14326;50.794;6.060;2023-05-10T05:38:00;31.65;;;11.63;;
26718;SDS011;14326;50.794;6.060;2023-05-10T05:40:27;31.13;;;11.73;;
26718;SDS011;14326;50.794;6.060;2023-05-10T05:42:54;29.35;;;11.48;;
26718;SDS011;14326;50.794;6.060;2023-05-10T05:45:20;31.10;;;10.85;;
26718;SDS011;14326;50.794;6.060;2023-05-10T05:47:48;30.58;;;11.90;;
26718;SDS011;14326;50.794;6.060;2023-05-10T05:50:28;26.65;;;10.90;;
26718;SDS011;14326;50.794;6.060;2023-05-10T05:52:54;27.10;;;10.13;;
26718;SDS011;14326;50.794;6.060;2023-05-10T05:55:23;28.05;;;11.40;;
26718;SDS011;14326;50.794;6.060;2023-05-10T05:57:50;25.17;;;9.75;;
26718;SDS011;14326;50.794;6.060;2023-05-10T06:00:17;24.08;;;10.10;;
26718;SDS011;14326;50.794;6.060;2023-05-10T06:02:44;23.52;;;9.93;;
26718;SDS011;14326;50.794;6.060;2023-05-10T06:05:11;26.83;;;10.25;;
26718;SDS011;14326;50.794;6.060;2023-05-10T06:07:39;24.13;;;9.73;;
26718;SDS011;14326;50.794;6.060;2023-05-10T06:10:10;26.15;;;9.38;;
26718;SDS011;14326;50.794;6.060;2023-05-10T06:13:06;24.65;;;8.35;;
26718;SDS011;14326;50.794;6.060;2023-05-10T06:15:33;24.02;;;10.02;;
26718;SDS011;14326;50.794;6.060;2023-05-10T06:17:59;20.02;;;6.97;;
26718;SDS011;14326;50.794;6.060;2023-05-10T06:20:26;24.65;;;8.55;;
26718;SDS011;14326;50.794;6.060;2023-05-10T06:22:52;20.52;;;7.03;;
26718;SDS011;14326;50.794;6.060;2023-05-10T06:25:19;19.58;;;7.18;;
26718;SDS011;14326;50.794;6.060;2023-05-10T06:27:46;20.65;;;7.72;;
26718;SDS011;14326;50.794;6.060;2023-05-10T06:30:14;18.27;;;6.10;;
26718;SDS011;14326;50.794;6.060;2023-05-10T06:33:04;18.92;;;5.78;;
26718;SDS011;14326;50.794;6.060;2023-05-10T06:35:42;16.45;;;5.05;;
26718;SDS011;14326;50.794;6.060;2023-05-10T06:38:09;15.02;;;5.03;;
26718;SDS011;14326;50.794;6.060;2023-05-10T06:40:35;14.10;;;4.25;;
26718;SDS011;14326;50.794;6.060;2023-05-10T06:43:02;15.90;;;4.35;;
26718;SDS011;14326;50.794;6.060;2023-05-10T06:45:30;13.10;;;4.10;;
26718;SDS011;14326;50.794;6.060;2023-05-10T06:47:57;12.45;;;3.83;;
26718;SDS011;14326;50.794;6.060;2023-05-10T06:50:24;9.55;;;2.85;;
26718;SDS011;14326;50.794;6.060;2023-05-10T06:52:50;7.00;;;2.40;;
26718;SDS011;14326;50.794;6.060;2023-05-10T06:55:17;7.40;;;2.15;;
26718;SDS011;14326;50.794;6.060;2023-05-10T06:57:48;11.70;;;2.85;;
26718;SDS011;14326;50.794;6.060;2023-05-10T07:00:24;9.15;;;2.90;;
26718;SDS011;14326;50.794;6.060;2023-05-10T07:02:52;6.85;;;2.08;;
26718;SDS011;14326;50.794;6.060;2023-05-10T07:05:20;5.30;;;1.60;;
26718;SDS011;14326;50.794;6.060;2023-05-10T07:07:47;3.72;;;1.48;;
26718;SDS011;14326;50.794;6.060;2023-05-10T07:10:13;6.68;;;1.70;;
26718;SDS011;14326;50.794;6.060;2023-05-10T07:12:40;7.82;;;1.50;;
26718;SDS011;14326;50.794;6.060;2023-05-10T07:15:07;6.65;;;1.52;;
26718;SDS011;14326;50.794;6.060;2023-05-10T07:17:35;6.35;;;1.73;;
26718;SDS011;14326;50.794;6.060;2023-05-10T07:20:03;5.68;;;1.60;;
26718;SDS011;14326;50.794;6.060;2023-05-10T07:22:31;6.03;;;1.60;;
26718;SDS011;14326;50.794;6.060;2023-05-10T07:24:57;5.38;;;1.80;;
26718;SDS011;14326;50.794;6.060;2023-05-10T07:27:24;3.22;;;1.27;;
26718;SDS011;14326;50.794;6.060;2023-05-10T07:29:51;6.95;;;1.90;;
26718;SDS011;14326;50.794;6.060;2023-05-10T07:32:18;12.68;;;3.28;;
26718;SDS011;14326;50.794;6.060;2023-05-10T07:34:44;13.23;;;3.75;;
26718;SDS011;14326;50.794;6.060;2023-05-10T07:37:12;22.08;;;6.85;;
26718;SDS011;14326;50.794;6.060;2023-05-10T07:39:39;21.25;;;7.35;;
26718;SDS011;14326;50.794;6.060;2023-05-10T07:42:05;26.45;;;7.53;;
26718;SDS011;14326;50.794;6.060;2023-05-10T07:44:32;23.02;;;7.20;;
26718;SDS011;14326;50.794;6.060;2023-05-10T07:46:58;26.15;;;8.82;;
26718;SDS011;14326;50.794;6.060;2023-05-10T07:49:25;23.88;;;7.72;;
26718;SDS011;14326;50.794;6.060;2023-05-10T07:51:52;25.38;;;7.95;;
26718;SDS011;14326;50.794;6.060;2023-05-10T07:54:20;24.60;;;8.70;;
26718;SDS011;14326;50.794;6.060;2023-05-10T07:56:46;25.45;;;9.57;;
26718;SDS011;14326;50.794;6.060;2023-05-10T07:59:14;26.52;;;9.60;;
26718;SDS011;14326;50.794;6.060;2023-05-10T08:01:41;25.30;;;9.55;;
26718;SDS011;14326;50.794;6.060;2023-05-10T08:04:09;31.15;;;10.68;;
26718;SDS011;14326;50.794;6.060;2023-05-10T08:06:36;29.75;;;11.15;;
26718;SDS011;14326;50.794;6.060;2023-05-10T08:09:03;36.30;;;13.35;;
26718;SDS011;14326;50.794;6.060;2023-05-10T08:11:31;34.42;;;12.85;;
26718;SDS011;14326;50.794;6.060;2023-05-10T08:13:58;30.55;;;11.82;;
26718;SDS011;14326;50.794;6.060;2023-05-10T08:16:24;21.65;;;6.68;;
26718;SDS011;14326;50.794;6.060;2023-05-10T08:18:51;19.60;;;6.80;;
26718;SDS011;14326;50.794;6.060;2023-05-10T08:21:20;18.27;;;5.47;;
26718;SDS011;14326;50.794;6.060;2023-05-10T08:23:47;15.10;;;4.70;;
26718;SDS011;14326;50.794;6.060;2023-05-10T08:26:14;12.90;;;3.42;;
26718;SDS011;14326;50.794;6.060;2023-05-10T08:28:42;12.32;;;3.40;;
26718;SDS011;14326;50.794;6.060;2023-05-10T08:31:08;9.30;;;2.58;;
26718;SDS011;14326;50.794;6.060;2023-05-10T08:33:35;9.70;;;2.83;;
26718;SDS011;14326;50.794;6.060;2023-05-10T08:36:01;7.10;;;2.47;;
26718;SDS011;14326;50.794;6.060;2023-05-10T08:38:28;6.28;;;1.80;;
26718;SDS011;14326;50.794;6.060;2023-05-10T08:40:55;7.40;;;2.10;;
26718;SDS011;14326;50.794;6.060;2023-05-10T08:43:24;5.40;;;1.98;;
26718;SDS011;14326;50.794;6.060;2023-05-10T08:48:23;3.75;;;1.63;;
26718;SDS011;14326;50.794;6.060;2023-05-10T08:50:52;4.68;;;1.60;;
26718;SDS011;14326;50.794;6.060;2023-05-10T08:53:20;4.15;;;1.88;;
26718;SDS011;14326;50.794;6.060;2023-05-10T08:55:50;4.73;;;1.87;;
26718;SDS011;14326;50.794;6.060;2023-05-10T08:58:17;6.63;;;1.95;;
26718;SDS011;14326;50.794;6.060;2023-05-10T09:00:44;8.38;;;2.38;;
26718;SDS011;14326;50.794;6.060;2023-05-10T09:03:13;6.97;;;2.33;;
26718;SDS011;14326;50.794;6.060;2023-05-10T09:05:40;8.23;;;2.38;;
26718;SDS011;14326;50.794;6.060;2023-05-10T09:08:07;7.78;;;2.92;;
26718;SDS011;14326;50.794;6.060;2023-05-10T09:10:35;9.30;;;3.10;;
26718;SDS011;14326;50.794;6.060;2023-05-10T09:13:03;9.70;;;2.92;;
26718;SDS011;14326;50.794;6.060;2023-05-10T09:15:30;9.85;;;2.60;;
26718;SDS011;14326;50.794;6.060;2023-05-10T09:17:57;8.63;;;2.90;;
26718;SDS011;14326;50.794;6.060;2023-05-10T09:20:28;6.97;;;2.50;;
26718;SDS011;14326;50.794;6.060;2023-05-10T09:22:56;7.32;;;2.53;;
26718;SDS011;14326;50.794;6.060;2023-05-10T09:25:22;7.07;;;2.80;;
26718;SDS011;14326;50.794;6.060;2023-05-10T09:27:49;6.78;;;2.80;;
26718;SDS011;14326;50.794;6.060;2023-05-10T09:30:17;8.20;;;3.22;;
26718;SDS011;14326;50.794;6.060;2023-05-10T09:32:49;8.43;;;3.00;;
26718;SDS011;14326;50.794;6.060;2023-05-10T09:35:16;8.95;;;3.17;;
26718;SDS011;14326;50.794;6.060;2023-05-10T09:37:46;9.77;;;3.75;;
26718;SDS011;14326;50.794;6.060;2023-05-10T09:40:15;5.45;;;2.05;;
26718;SDS011;14326;50.794;6.060;2023-05-10T09:42:50;8.57;;;3.13;;
26718;SDS011;14326;50.794;6.060;2023-05-10T09:45:18;9.05;;;3.30;;
26718;SDS011;14326;50.794;6.060;2023-05-10T09:47:45;6.90;;;2.70;;
26718;SDS011;14326;50.794;6.060;2023-05-10T09:50:12;9.40;;;2.78;;
26718;SDS011;14326;50.794;6.060;2023-05-10T09:52:47;10.88;;;3.10;;
26718;SDS011;14326;50.794;6.060;2023-05-10T09:55:16;9.65;;;2.95;;
26718;SDS011;14326;50.794;6.060;2023-05-10T09:57:43;7.97;;;3.13;;
26718;SDS011;14326;50.794;6.060;2023-05-10T10:00:10;8.80;;;3.22;;
26718;SDS011;14326;50.794;6.060;2023-05-10T10:02:44;7.10;;;2.88;;
26718;SDS011;14326;50.794;6.060;2023-05-10T10:05:12;7.63;;;2.80;;
26718;SDS011;14326;50.794;6.060;2023-05-10T10:07:39;9.32;;;2.88;;
26718;SDS011;14326;50.794;6.060;2023-05-10T10:10:08;5.78;;;2.45;;
26718;SDS011;14326;50.794;6.060;2023-05-10T10:12:39;8.23;;;2.60;;
26718;SDS011;14326;50.794;6.060;2023-05-10T10:15:12;5.90;;;2.40;;
26718;SDS011;14326;50.794;6.060;2023-05-10T10:20:22;9.07;;;3.30;;
26718;SDS011;14326;50.794;6.060;2023-05-10T10:25:41;11.63;;;3.72;;
26718;SDS011;14326;50.794;6.060;2023-05-10T10:28:12;25.02;;;8.73;;
26718;SDS011;14326;50.794;6.060;2023-05-10T10:30:49;19.15;;;5.90;;
26718;SDS011;14326;50.794;6.060;2023-05-10T10:33:28;13.13;;;3.72;;
26718;SDS011;14326;50.794;6.060;2023-05-10T10:36:22;16.77;;;4.97;;
26718;SDS011;14326;50.794;6.060;2023-05-10T10:38:55;20.75;;;7.30;;
26718;SDS011;14326;50.794;6.060;2023-05-10T10:41:33;15.52;;;5.28;;
26718;SDS011;14326;50.794;6.060;2023-05-10T10:47:02;22.23;;;6.65;;
26718;SDS011;14326;50.794;6.060;2023-05-10T10:49:42;19.85;;;6.72;;
26718;SDS011;14326;50.794;6.060;2023-05-10T10:52:24;15.32;;;5.18;;
26718;SDS011;14326;50.794;6.060;2023-05-10T10:54:58;19.95;;;7.82;;
26718;SDS011;14326;50.794;6.060;2023-05-10T10:57:32;14.57;;;5.55;;
26718;SDS011;14326;50.794;6.060;2023-05-10T11:00:18;12.75;;;4.45;;
26718;SDS011;14326;50.794;6.060;2023-05-10T11:02:46;8.13;;;3.17;;
26718;SDS011;14326;50.794;6.060;2023-05-10T11:08:12;4.70;;;2.47;;
26718;SDS011;14326;50.794;6.060;2023-05-10T11:10:50;8.02;;;3.30;;
26718;SDS011;14326;50.794;6.060;2023-05-10T11:13:27;7.45;;;3.38;;
26718;SDS011;14326;50.794;6.060;2023-05-10T11:15:55;13.20;;;3.35;;
26718;SDS011;14326;50.794;6.060;2023-05-10T11:18:24;6.03;;;2.85;;
26718;SDS011;14326;50.794;6.060;2023-05-10T11:20:52;9.20;;;3.13;;
26718;SDS011;14326;50.794;6.060;2023-05-10T11:23:21;10.90;;;3.50;;
26718;SDS011;14326;50.794;6.060;2023-05-10T11:25:48;7.20;;;2.78;;
26718;SDS011;14326;50.794;6.060;2023-05-10T11:28:16;6.35;;;2.60;;
26718;SDS011;14326;50.794;6.060;2023-05-10T11:30:46;8.02;;;3.33;;
26718;SDS011;14326;50.794;6.060;2023-05-10T11:33:16;7.10;;;3.10;;
26718;SDS011;14326;50.794;6.060;2023-05-10T11:35:44;8.55;;;3.47;;
26718;SDS011;14326;50.794;6.060;2023-05-10T11:38:11;6.22;;;2.90;;
26718;SDS011;14326;50.794;6.060;2023-05-10T11:40:39;9.93;;;3.22;;
26718;SDS011;14326;50.794;6.060;2023-05-10T11:43:08;10.18;;;3.50;;
26718;SDS011;14326;50.794;6.060;2023-05-10T11:45:42;11.13;;;3.60;;
26718;SDS011;14326;50.794;6.060;2023-05-10T11:48:10;12.45;;;4.63;;
26718;SDS011;14326;50.794;6.060;2023-05-10T11:50:36;12.07;;;3.60;;
26718;SDS011;14326;50.794;6.060;2023-05-10T11:53:03;10.15;;;3.50;;
26718;SDS011;14326;50.794;6.060;2023-05-10T11:55:33;10.77;;;3.58;;
26718;SDS011;14326;50.794;6.060;2023-05-10T11:58:00;12.25;;;3.83;;
26718;SDS011;14326;50.794;6.060;2023-05-10T12:00:28;12.68;;;4.05;;
26718;SDS011;14326;50.794;6.060;2023-05-10T12:02:55;10.40;;;3.70;;
26718;SDS011;14326;50.794;6.060;2023-05-10T12:05:24;12.15;;;3.88;;
26718;SDS011;14326;50.794;6.060;2023-05-10T12:07:51;17.20;;;6.65;;
26718;SDS011;14326;50.794;6.060;2023-05-10T12:10:18;14.05;;;4.68;;
26718;SDS011;14326;50.794;6.060;2023-05-10T12:12:51;17.75;;;5.70;;
26718;SDS011;14326;50.794;6.060;2023-05-10T12:15:19;33.80;;;13.40;;
26718;SDS011;14326;50.794;6.060;2023-05-10T12:17:50;20.25;;;7.32;;
26718;SDS011;14326;50.794;6.060;2023-05-10T12:20:18;14.30;;;5.00;;
26718;SDS011;14326;50.794;6.060;2023-05-10T12:22:48;23.20;;;7.72;;
26718;SDS011;14326;50.794;6.060;2023-05-10T12:25:17;26.90;;;12.20;;
26718;SDS011;14326;50.794;6.060;2023-05-10T12:27:53;26.92;;;11.68;;
26718;SDS011;14326;50.794;6.060;2023-05-10T12:30:21;16.38;;;5.93;;
26718;SDS011;14326;50.794;6.060;2023-05-10T12:32:49;16.70;;;6.10;;
26718;SDS011;14326;50.794;6.060;2023-05-10T12:35:19;13.70;;;4.57;;
26718;SDS011;14326;50.794;6.060;2023-05-10T12:37:48;15.00;;;4.85;;
26718;SDS011;14326;50.794;6.060;2023-05-10T12:40:15;14.45;;;5.35;;
26718;SDS011;14326;50.794;6.060;2023-05-10T12:42:41;15.82;;;5.18;;
26718;SDS011;14326;50.794;6.060;2023-05-10T12:45:10;16.98;;;4.93;;
26718;SDS011;14326;50.794;6.060;2023-05-10T12:47:37;15.10;;;5.03;;
26718;SDS011;14326;50.794;6.060;2023-05-10T12:50:04;13.93;;;4.35;;
26718;SDS011;14326;50.794;6.060;2023-05-10T12:52:32;13.93;;;4.50;;
26718;SDS011;14326;50.794;6.060;2023-05-10T12:55:00;11.75;;;4.47;;
26718;SDS011;14326;50.794;6.060;2023-05-10T12:57:28;12.80;;;4.70;;
26718;SDS011;14326;50.794;6.060;2023-05-10T12:59:55;14.55;;;4.35;;
26718;SDS011;14326;50.794;6.060;2023-05-10T13:02:29;14.15;;;4.75;;
26718;SDS011;14326;50.794;6.060;2023-05-10T13:04:56;13.88;;;4.88;;
26718;SDS011;14326;50.794;6.060;2023-05-10T13:07:25;15.35;;;5.00;;
26718;SDS011;14326;50.794;6.060;2023-05-10T13:10:04;14.77;;;5.28;;
26718;SDS011;14326;50.794;6.060;2023-05-10T13:12:34;16.00;;;5.15;;
26718;SDS011;14326;50.794;6.060;2023-05-10T13:15:02;14.07;;;5.03;;
26718;SDS011;14326;50.794;6.060;2023-05-10T13:17:29;14.75;;;5.35;;
26718;SDS011;14326;50.794;6.060;2023-05-10T13:19:55;14.55;;;5.25;;
26718;SDS011;14326;50.794;6.060;2023-05-10T13:22:22;14.65;;;5.30;;
26718;SDS011;14326;50.794;6.060;2023-05-10T13:24:49;15.60;;;5.13;;
26718;SDS011;14326;50.794;6.060;2023-05-10T13:27:17;13.45;;;4.53;;
26718;SDS011;14326;50.794;6.060;2023-05-10T13:29:43;16.73;;;5.03;;
26718;SDS011;14326;50.794;6.060;2023-05-10T13:32:10;15.20;;;5.18;;
26718;SDS011;14326;50.794;6.060;2023-05-10T13:34:37;14.70;;;4.60;;
26718;SDS011;14326;50.794;6.060;2023-05-10T13:37:03;14.45;;;5.20;;
26718;SDS011;14326;50.794;6.060;2023-05-10T13:39:30;14.35;;;4.68;;
26718;SDS011;14326;50.794;6.060;2023-05-10T13:41:59;12.60;;;4.50;;
26718;SDS011;14326;50.794;6.060;2023-05-10T13:44:27;14.93;;;4.30;;
26718;SDS011;14326;50.794;6.060;2023-05-10T13:46:53;15.30;;;4.85;;
26718;SDS011;14326;50.794;6.060;2023-05-10T13:49:20;14.90;;;4.88;;
26718;SDS011;14326;50.794;6.060;2023-05-10T13:51:47;14.55;;;3.95;;
26718;SDS011;14326;50.794;6.060;2023-05-10T13:54:13;15.15;;;4.70;;
26718;SDS011;14326;50.794;6.060;2023-05-10T13:56:41;13.32;;;4.05;;
26718;SDS011;14326;50.794;6.060;2023-05-10T13:59:08;12.15;;;3.88;;
26718;SDS011;14326;50.794;6.060;2023-05-10T14:01:36;12.75;;;3.70;;
26718;SDS011;14326;50.794;6.060;2023-05-10T14:04:03;11.75;;;3.50;;
26718;SDS011;14326;50.794;6.060;2023-05-10T14:06:30;10.43;;;3.28;;
26718;SDS011;14326;50.794;6.060;2023-05-10T14:08:57;9.30;;;3.30;;
26718;SDS011;14326;50.794;6.060;2023-05-10T14:11:23;14.43;;;4.00;;
26718;SDS011;14326;50.794;6.060;2023-05-10T14:13:50;10.40;;;3.30;;
26718;SDS011;14326;50.794;6.060;2023-05-10T14:16:17;13.35;;;4.95;;
26718;SDS011;14326;50.794;6.060;2023-05-10T14:18:45;12.75;;;3.97;;
26718;SDS011;14326;50.794;6.060;2023-05-10T14:21:12;11.50;;;4.00;;
26718;SDS011;14326;50.794;6.060;2023-05-10T14:23:39;14.35;;;4.57;;
26718;SDS011;14326;50.794;6.060;2023-05-10T14:26:05;14.95;;;4.07;;
26718;SDS011;14326;50.794;6.060;2023-05-10T14:28:32;13.30;;;4.10;;
26718;SDS011;14326;50.794;6.060;2023-05-10T14:31:04;13.32;;;4.43;;
26718;SDS011;14326;50.794;6.060;2023-05-10T14:33:46;15.27;;;4.57;;
26718;SDS011;14326;50.794;6.060;2023-05-10T14:36:13;12.40;;;4.43;;
26718;SDS011;14326;50.794;6.060;2023-05-10T14:38:40;16.23;;;5.10;;
26718;SDS011;14326;50.794;6.060;2023-05-10T14:41:07;14.00;;;4.50;;
26718;SDS011;14326;50.794;6.060;2023-05-10T14:43:33;15.23;;;5.22;;
26718;SDS011;14326;50.794;6.060;2023-05-10T14:46:01;16.95;;;4.63;;
26718;SDS011;14326;50.794;6.060;2023-05-10T14:48:28;14.50;;;4.80;;
26718;SDS011;14326;50.794;6.060;2023-05-10T14:51:00;17.60;;;5.15;;
26718;SDS011;14326;50.794;6.060;2023-05-10T14:53:58;17.83;;;5.05;;
26718;SDS011;14326;50.794;6.060;2023-05-10T14:56:25;13.68;;;4.55;;
26718;SDS011;14326;50.794;6.060;2023-05-10T14:58:52;13.15;;;4.05;;
26718;SDS011;14326;50.794;6.060;2023-05-10T15:01:19;11.10;;;4.00;;
26718;SDS011;14326;50.794;6.060;2023-05-10T15:03:49;15.02;;;5.20;;
26718;SDS011;14326;50.794;6.060;2023-05-10T15:06:17;13.32;;;4.38;;
26718;SDS011;14326;50.794;6.060;2023-05-10T15:08:49;12.60;;;3.85;;
26718;SDS011;14326;50.794;6.060;2023-05-10T15:11:16;13.02;;;3.80;;
26718;SDS011;14326;50.794;6.060;2023-05-10T15:13:43;12.93;;;3.97;;
26718;SDS011;14326;50.794;6.060;2023-05-10T15:16:09;10.05;;;3.30;;
26718;SDS011;14326;50.794;6.060;2023-05-10T15:18:36;10.90;;;3.65;;
26718;SDS011;14326;50.794;6.060;2023-05-10T15:21:03;9.23;;;3.38;;
26718;SDS011;14326;50.794;6.060;2023-05-10T15:23:31;9.40;;;3.20;;
26718;SDS011;14326;50.794;6.060;2023-05-10T15:25:57;7.53;;;2.70;;